sensor_id;sensor_type;location;lat;lon;timestamp;P1;durP1;ratioP1;P2;durP2;ratioP2
24585;SDS011;12743;52.262;6.172;2023-04-24T00:00:44;3.23;;;0.80;;
24585;SDS011;12743;52.262;6.172;2023-04-24T00:03:11;2.72;;;1.00;;
24585;SDS011;12743;52.262;6.172;2023-04-24T00:05:39;3.72;;;1.00;;
24585;SDS011;12743;52.262;6.172;2023-04-24T00:08:06;2.78;;;1.02;;
24585;SDS011;12743;52.262;6.172;2023-04-24T00:10:33;3.40;;;1.27;;
24585;SDS011;12743;52.262;6.172;2023-04-24T00:12:59;2.53;;;0.90;;
24585;SDS011;12743;52.262;6.172;2023-04-24T00:15:26;4.38;;;1.50;;
24585;SDS011;12743;52.262;6.172;2023-04-24T00:17:52;3.50;;;1.10;;
24585;SDS011;12743;52.262;6.172;2023-04-24T00:20:19;2.35;;;0.90;;
24585;SDS011;12743;52.262;6.172;2023-04-24T00:22:47;3.35;;;1.50;;
24585;SDS011;12743;52.262;6.172;2023-04-24T00:25:14;4.40;;;1.60;;
24585;SDS011;12743;52.262;6.172;2023-04-24T00:27:40;5.50;;;1.73;;
24585;SDS011;12743;52.262;6.172;2023-04-24T00:30:07;3.78;;;1.80;;
24585;SDS011;12743;52.262;6.172;2023-04-24T00:32:34;4.55;;;1.75;;
24585;SDS011;12743;52.262;6.172;2023-04-24T00:35:01;4.70;;;2.10;;
24585;SDS011;12743;52.262;6.172;2023-04-24T00:37:28;5.20;;;1.90;;
24585;SDS011;12743;52.262;6.172;2023-04-24T00:39:55;4.63;;;1.90;;
24585;SDS011;12743;52.262;6.172;2023-04-24T00:42:22;5.20;;;2.58;;
24585;SDS011;12743;52.262;6.172;2023-04-24T00:44:48;5.53;;;2.83;;
24585;SDS011;12743;52.262;6.172;2023-04-24T00:47:15;6.10;;;2.50;;
24585;SDS011;12743;52.262;6.172;2023-04-24T00:49:42;7.50;;;2.53;;
24585;SDS011;12743;52.262;6.172;2023-04-24T00:52:09;6.60;;;2.17;;
24585;SDS011;12743;52.262;6.172;2023-04-24T00:54:35;4.65;;;1.98;;
24585;SDS011;12743;52.262;6.172;2023-04-24T00:57:02;5.13;;;1.90;;
24585;SDS011;12743;52.262;6.172;2023-04-24T00:59:29;5.32;;;1.70;;
24585;SDS011;12743;52.262;6.172;2023-04-24T01:01:57;4.57;;;2.00;;
24585;SDS011;12743;52.262;6.172;2023-04-24T01:04:24;4.18;;;1.85;;
24585;SDS011;12743;52.262;6.172;2023-04-24T01:06:51;4.75;;;2.33;;
24585;SDS011;12743;52.262;6.172;2023-04-24T01:09:18;5.97;;;2.47;;
24585;SDS011;12743;52.262;6.172;2023-04-24T01:11:47;5.03;;;2.70;;
24585;SDS011;12743;52.262;6.172;2023-04-24T01:14:13;6.33;;;2.83;;
24585;SDS011;12743;52.262;6.172;2023-04-24T01:16:40;7.13;;;2.50;;
24585;SDS011;12743;52.262;6.172;2023-04-24T01:19:07;5.15;;;2.28;;
24585;SDS011;12743;52.262;6.172;2023-04-24T01:21:37;4.70;;;2.42;;
24585;SDS011;12743;52.262;6.172;2023-04-24T01:24:04;5.30;;;2.45;;
24585;SDS011;12743;52.262;6.172;2023-04-24T01:26:31;4.97;;;1.83;;
24585;SDS011;12743;52.262;6.172;2023-04-24T01:28:58;4.70;;;2.10;;
24585;SDS011;12743;52.262;6.172;2023-04-24T01:31:24;6.35;;;2.25;;
24585;SDS011;12743;52.262;6.172;2023-04-24T01:33:51;6.30;;;2.17;;
24585;SDS011;12743;52.262;6.172;2023-04-24T01:36:19;5.32;;;2.17;;
24585;SDS011;12743;52.262;6.172;2023-04-24T01:38:46;5.27;;;2.40;;
24585;SDS011;12743;52.262;6.172;2023-04-24T01:41:12;6.47;;;2.08;;
24585;SDS011;12743;52.262;6.172;2023-04-24T01:43:39;4.72;;;2.30;;
24585;SDS011;12743;52.262;6.172;2023-04-24T01:46:06;4.32;;;1.90;;
24585;SDS011;12743;52.262;6.172;2023-04-24T01:48:35;4.40;;;2.28;;
24585;SDS011;12743;52.262;6.172;2023-04-24T01:51:01;4.00;;;2.10;;
24585;SDS011;12743;52.262;6.172;2023-04-24T01:53:29;4.05;;;1.75;;
24585;SDS011;12743;52.262;6.172;2023-04-24T01:55:55;4.18;;;1.70;;
24585;SDS011;12743;52.262;6.172;2023-04-24T01:58:23;5.38;;;2.00;;
24585;SDS011;12743;52.262;6.172;2023-04-24T02:00:51;5.15;;;2.33;;
24585;SDS011;12743;52.262;6.172;2023-04-24T02:03:17;5.20;;;2.70;;
24585;SDS011;12743;52.262;6.172;2023-04-24T02:05:44;4.88;;;2.05;;
24585;SDS011;12743;52.262;6.172;2023-04-24T02:08:11;5.35;;;3.10;;
24585;SDS011;12743;52.262;6.172;2023-04-24T02:10:38;7.10;;;3.42;;
24585;SDS011;12743;52.262;6.172;2023-04-24T02:13:04;5.00;;;2.65;;
24585;SDS011;12743;52.262;6.172;2023-04-24T02:15:31;7.80;;;3.10;;
24585;SDS011;12743;52.262;6.172;2023-04-24T02:17:57;6.35;;;3.17;;
24585;SDS011;12743;52.262;6.172;2023-04-24T02:20:24;4.38;;;2.42;;
24585;SDS011;12743;52.262;6.172;2023-04-24T02:22:52;5.40;;;2.60;;
24585;SDS011;12743;52.262;6.172;2023-04-24T02:25:18;5.75;;;3.25;;
24585;SDS011;12743;52.262;6.172;2023-04-24T02:27:45;4.80;;;2.80;;
24585;SDS011;12743;52.262;6.172;2023-04-24T02:30:11;5.82;;;3.00;;
24585;SDS011;12743;52.262;6.172;2023-04-24T02:32:38;5.63;;;3.60;;
24585;SDS011;12743;52.262;6.172;2023-04-24T02:35:05;5.30;;;3.08;;
24585;SDS011;12743;52.262;6.172;2023-04-24T02:37:32;6.43;;;2.75;;
24585;SDS011;12743;52.262;6.172;2023-04-24T02:39:59;5.33;;;2.70;;
24585;SDS011;12743;52.262;6.172;2023-04-24T02:42:26;5.72;;;3.40;;
24585;SDS011;12743;52.262;6.172;2023-04-24T02:44:52;5.93;;;3.70;;
24585;SDS011;12743;52.262;6.172;2023-04-24T02:47:19;6.90;;;3.05;;
24585;SDS011;12743;52.262;6.172;2023-04-24T02:49:48;6.70;;;3.13;;
24585;SDS011;12743;52.262;6.172;2023-04-24T02:52:14;6.10;;;3.23;;
24585;SDS011;12743;52.262;6.172;2023-04-24T02:54:41;6.10;;;3.50;;
24585;SDS011;12743;52.262;6.172;2023-04-24T02:57:08;6.07;;;3.55;;
24585;SDS011;12743;52.262;6.172;2023-04-24T02:59:37;6.72;;;3.65;;
24585;SDS011;12743;52.262;6.172;2023-04-24T03:02:03;5.75;;;3.20;;
24585;SDS011;12743;52.262;6.172;2023-04-24T03:04:30;6.17;;;3.23;;
24585;SDS011;12743;52.262;6.172;2023-04-24T03:06:58;6.53;;;3.83;;
24585;SDS011;12743;52.262;6.172;2023-04-24T03:09:25;7.28;;;3.80;;
24585;SDS011;12743;52.262;6.172;2023-04-24T03:11:52;6.55;;;3.78;;
24585;SDS011;12743;52.262;6.172;2023-04-24T03:14:18;6.20;;;3.72;;
24585;SDS011;12743;52.262;6.172;2023-04-24T03:16:45;8.33;;;4.20;;
24585;SDS011;12743;52.262;6.172;2023-04-24T03:19:12;6.78;;;4.05;;
24585;SDS011;12743;52.262;6.172;2023-04-24T03:21:53;7.30;;;4.38;;
24585;SDS011;12743;52.262;6.172;2023-04-24T03:24:20;7.75;;;3.78;;
24585;SDS011;12743;52.262;6.172;2023-04-24T03:26:47;6.90;;;3.75;;
24585;SDS011;12743;52.262;6.172;2023-04-24T03:29:46;6.60;;;3.60;;
24585;SDS011;12743;52.262;6.172;2023-04-24T03:32:14;5.95;;;3.45;;
24585;SDS011;12743;52.262;6.172;2023-04-24T03:34:41;7.38;;;3.33;;
24585;SDS011;12743;52.262;6.172;2023-04-24T03:37:10;6.63;;;3.38;;
24585;SDS011;12743;52.262;6.172;2023-04-24T03:39:40;5.82;;;2.70;;
24585;SDS011;12743;52.262;6.172;2023-04-24T03:42:08;4.40;;;2.37;;
24585;SDS011;12743;52.262;6.172;2023-04-24T03:44:45;4.65;;;2.17;;
24585;SDS011;12743;52.262;6.172;2023-04-24T03:47:11;4.43;;;1.80;;
24585;SDS011;12743;52.262;6.172;2023-04-24T03:49:38;4.97;;;2.00;;
24585;SDS011;12743;52.262;6.172;2023-04-24T03:52:05;7.32;;;2.00;;
24585;SDS011;12743;52.262;6.172;2023-04-24T03:54:31;4.63;;;2.30;;
24585;SDS011;12743;52.262;6.172;2023-04-24T03:56:58;4.20;;;1.95;;
24585;SDS011;12743;52.262;6.172;2023-04-24T03:59:26;4.55;;;2.20;;
24585;SDS011;12743;52.262;6.172;2023-04-24T04:02:16;6.28;;;2.45;;
24585;SDS011;12743;52.262;6.172;2023-04-24T04:04:43;4.43;;;1.80;;
24585;SDS011;12743;52.262;6.172;2023-04-24T04:07:10;4.00;;;1.67;;
24585;SDS011;12743;52.262;6.172;2023-04-24T04:09:37;5.93;;;2.15;;
24585;SDS011;12743;52.262;6.172;2023-04-24T04:12:04;6.03;;;1.92;;
24585;SDS011;12743;52.262;6.172;2023-04-24T04:14:32;4.90;;;1.95;;
24585;SDS011;12743;52.262;6.172;2023-04-24T04:16:58;4.43;;;2.00;;
24585;SDS011;12743;52.262;6.172;2023-04-24T04:19:25;4.40;;;1.83;;
24585;SDS011;12743;52.262;6.172;2023-04-24T04:21:52;4.53;;;2.08;;
24585;SDS011;12743;52.262;6.172;2023-04-24T04:24:34;6.18;;;2.85;;
24585;SDS011;12743;52.262;6.172;2023-04-24T04:27:04;6.60;;;3.50;;
24585;SDS011;12743;52.262;6.172;2023-04-24T04:29:38;6.93;;;3.13;;
24585;SDS011;12743;52.262;6.172;2023-04-24T04:32:09;6.67;;;3.20;;
24585;SDS011;12743;52.262;6.172;2023-04-24T04:34:35;7.90;;;4.13;;
24585;SDS011;12743;52.262;6.172;2023-04-24T04:37:05;7.57;;;3.55;;
24585;SDS011;12743;52.262;6.172;2023-04-24T04:39:48;7.70;;;3.00;;
24585;SDS011;12743;52.262;6.172;2023-04-24T04:42:21;7.63;;;2.92;;
24585;SDS011;12743;52.262;6.172;2023-04-24T04:44:48;8.90;;;3.70;;
24585;SDS011;12743;52.262;6.172;2023-04-24T04:47:20;8.07;;;4.25;;
24585;SDS011;12743;52.262;6.172;2023-04-24T04:49:52;10.00;;;4.43;;
24585;SDS011;12743;52.262;6.172;2023-04-24T04:52:23;8.98;;;4.25;;
24585;SDS011;12743;52.262;6.172;2023-04-24T04:54:57;10.75;;;4.57;;
24585;SDS011;12743;52.262;6.172;2023-04-24T04:57:34;9.30;;;5.30;;
24585;SDS011;12743;52.262;6.172;2023-04-24T05:00:01;10.50;;;5.68;;
24585;SDS011;12743;52.262;6.172;2023-04-24T05:02:40;11.30;;;6.55;;
24585;SDS011;12743;52.262;6.172;2023-04-24T05:05:07;11.85;;;6.15;;
24585;SDS011;12743;52.262;6.172;2023-04-24T05:07:34;13.48;;;6.80;;
24585;SDS011;12743;52.262;6.172;2023-04-24T05:10:01;13.17;;;7.00;;
24585;SDS011;12743;52.262;6.172;2023-04-24T05:12:29;14.10;;;7.10;;
24585;SDS011;12743;52.262;6.172;2023-04-24T05:14:56;14.02;;;7.25;;
24585;SDS011;12743;52.262;6.172;2023-04-24T05:17:24;11.75;;;6.20;;
24585;SDS011;12743;52.262;6.172;2023-04-24T05:19:53;10.90;;;6.05;;
24585;SDS011;12743;52.262;6.172;2023-04-24T05:22:20;7.93;;;3.70;;
24585;SDS011;12743;52.262;6.172;2023-04-24T05:24:50;10.48;;;4.82;;
24585;SDS011;12743;52.262;6.172;2023-04-24T05:27:31;10.77;;;5.20;;
24585;SDS011;12743;52.262;6.172;2023-04-24T05:30:00;11.45;;;5.78;;
24585;SDS011;12743;52.262;6.172;2023-04-24T05:32:28;11.35;;;5.45;;
24585;SDS011;12743;52.262;6.172;2023-04-24T05:34:54;9.40;;;4.33;;
24585;SDS011;12743;52.262;6.172;2023-04-24T05:37:21;8.15;;;3.55;;
24585;SDS011;12743;52.262;6.172;2023-04-24T05:39:48;5.97;;;2.65;;
24585;SDS011;12743;52.262;6.172;2023-04-24T05:42:14;5.60;;;2.40;;
24585;SDS011;12743;52.262;6.172;2023-04-24T05:44:41;5.13;;;2.35;;
24585;SDS011;12743;52.262;6.172;2023-04-24T05:47:08;5.10;;;1.90;;
24585;SDS011;12743;52.262;6.172;2023-04-24T05:49:34;4.57;;;1.33;;
24585;SDS011;12743;52.262;6.172;2023-04-24T05:52:01;5.00;;;1.60;;
24585;SDS011;12743;52.262;6.172;2023-04-24T05:54:30;3.40;;;1.10;;
24585;SDS011;12743;52.262;6.172;2023-04-24T05:56:57;4.55;;;1.45;;
24585;SDS011;12743;52.262;6.172;2023-04-24T05:59:34;4.27;;;1.60;;
24585;SDS011;12743;52.262;6.172;2023-04-24T06:02:03;5.85;;;2.10;;
24585;SDS011;12743;52.262;6.172;2023-04-24T06:04:29;4.78;;;1.90;;
24585;SDS011;12743;52.262;6.172;2023-04-24T06:06:57;8.27;;;1.77;;
24585;SDS011;12743;52.262;6.172;2023-04-24T06:09:25;7.85;;;1.92;;
24585;SDS011;12743;52.262;6.172;2023-04-24T06:11:52;8.87;;;2.53;;
24585;SDS011;12743;52.262;6.172;2023-04-24T06:14:22;4.82;;;1.60;;
24585;SDS011;12743;52.262;6.172;2023-04-24T06:17:09;4.82;;;1.50;;
24585;SDS011;12743;52.262;6.172;2023-04-24T06:19:38;5.57;;;1.52;;
24585;SDS011;12743;52.262;6.172;2023-04-24T06:22:05;4.07;;;1.20;;
24585;SDS011;12743;52.262;6.172;2023-04-24T06:24:35;3.90;;;0.97;;
24585;SDS011;12743;52.262;6.172;2023-04-24T06:27:02;4.95;;;1.17;;
24585;SDS011;12743;52.262;6.172;2023-04-24T06:29:29;17.50;;;1.50;;
24585;SDS011;12743;52.262;6.172;2023-04-24T06:31:56;6.38;;;1.17;;
24585;SDS011;12743;52.262;6.172;2023-04-24T06:34:22;6.25;;;1.20;;
24585;SDS011;12743;52.262;6.172;2023-04-24T06:36:49;3.30;;;1.30;;
24585;SDS011;12743;52.262;6.172;2023-04-24T06:39:15;3.47;;;0.98;;
24585;SDS011;12743;52.262;6.172;2023-04-24T06:41:42;5.88;;;1.15;;
24585;SDS011;12743;52.262;6.172;2023-04-24T06:44:17;3.80;;;1.17;;
24585;SDS011;12743;52.262;6.172;2023-04-24T06:46:44;4.18;;;1.13;;
24585;SDS011;12743;52.262;6.172;2023-04-24T06:49:10;4.23;;;0.80;;
24585;SDS011;12743;52.262;6.172;2023-04-24T06:51:37;4.97;;;1.05;;
24585;SDS011;12743;52.262;6.172;2023-04-24T06:54:03;5.38;;;1.40;;
24585;SDS011;12743;52.262;6.172;2023-04-24T06:56:30;4.05;;;1.30;;
24585;SDS011;12743;52.262;6.172;2023-04-24T06:58:57;3.75;;;1.30;;
24585;SDS011;12743;52.262;6.172;2023-04-24T07:01:23;4.47;;;1.20;;
24585;SDS011;12743;52.262;6.172;2023-04-24T07:03:50;4.70;;;1.70;;
24585;SDS011;12743;52.262;6.172;2023-04-24T07:06:17;5.18;;;1.35;;
24585;SDS011;12743;52.262;6.172;2023-04-24T07:08:44;4.40;;;1.30;;
24585;SDS011;12743;52.262;6.172;2023-04-24T07:11:11;5.05;;;1.80;;
24585;SDS011;12743;52.262;6.172;2023-04-24T07:13:38;5.77;;;1.40;;
24585;SDS011;12743;52.262;6.172;2023-04-24T07:16:08;4.72;;;1.58;;
24585;SDS011;12743;52.262;6.172;2023-04-24T07:18:35;6.78;;;1.90;;
24585;SDS011;12743;52.262;6.172;2023-04-24T07:21:02;5.45;;;1.80;;
24585;SDS011;12743;52.262;6.172;2023-04-24T07:23:29;6.78;;;1.63;;
24585;SDS011;12743;52.262;6.172;2023-04-24T07:25:56;5.63;;;2.23;;
24585;SDS011;12743;52.262;6.172;2023-04-24T07:28:23;6.25;;;2.10;;
24585;SDS011;12743;52.262;6.172;2023-04-24T07:30:50;5.70;;;1.52;;
24585;SDS011;12743;52.262;6.172;2023-04-24T07:33:20;10.80;;;1.70;;
24585;SDS011;12743;52.262;6.172;2023-04-24T07:35:46;4.30;;;1.48;;
24585;SDS011;12743;52.262;6.172;2023-04-24T07:38:13;6.00;;;2.30;;
24585;SDS011;12743;52.262;6.172;2023-04-24T07:40:40;6.22;;;2.35;;
24585;SDS011;12743;52.262;6.172;2023-04-24T07:43:06;4.97;;;1.73;;
24585;SDS011;12743;52.262;6.172;2023-04-24T07:45:33;5.15;;;1.80;;
24585;SDS011;12743;52.262;6.172;2023-04-24T07:48:03;7.10;;;2.00;;
24585;SDS011;12743;52.262;6.172;2023-04-24T07:50:30;6.07;;;1.80;;
24585;SDS011;12743;52.262;6.172;2023-04-24T07:52:56;3.88;;;1.35;;
24585;SDS011;12743;52.262;6.172;2023-04-24T07:55:23;4.82;;;1.25;;
24585;SDS011;12743;52.262;6.172;2023-04-24T07:57:53;4.72;;;1.77;;
24585;SDS011;12743;52.262;6.172;2023-04-24T08:00:20;6.15;;;1.50;;
24585;SDS011;12743;52.262;6.172;2023-04-24T08:02:47;7.73;;;1.53;;
24585;SDS011;12743;52.262;6.172;2023-04-24T08:05:14;5.55;;;1.95;;
24585;SDS011;12743;52.262;6.172;2023-04-24T08:07:41;5.10;;;1.73;;
24585;SDS011;12743;52.262;6.172;2023-04-24T08:10:12;4.78;;;1.75;;
24585;SDS011;12743;52.262;6.172;2023-04-24T08:12:38;8.82;;;2.90;;
24585;SDS011;12743;52.262;6.172;2023-04-24T08:15:05;6.53;;;2.37;;
24585;SDS011;12743;52.262;6.172;2023-04-24T08:17:33;8.43;;;4.05;;
24585;SDS011;12743;52.262;6.172;2023-04-24T08:20:02;9.43;;;4.78;;
24585;SDS011;12743;52.262;6.172;2023-04-24T08:22:31;8.73;;;4.10;;
24585;SDS011;12743;52.262;6.172;2023-04-24T08:24:59;11.45;;;5.32;;
24585;SDS011;12743;52.262;6.172;2023-04-24T08:27:26;11.87;;;5.60;;
24585;SDS011;12743;52.262;6.172;2023-04-24T08:29:53;12.32;;;5.70;;
24585;SDS011;12743;52.262;6.172;2023-04-24T08:32:20;11.73;;;6.07;;
24585;SDS011;12743;52.262;6.172;2023-04-24T08:34:46;12.57;;;6.20;;
24585;SDS011;12743;52.262;6.172;2023-04-24T08:37:15;12.38;;;6.60;;
24585;SDS011;12743;52.262;6.172;2023-04-24T08:39:41;12.37;;;6.10;;
24585;SDS011;12743;52.262;6.172;2023-04-24T08:42:08;14.02;;;6.80;;
24585;SDS011;12743;52.262;6.172;2023-04-24T08:44:37;16.13;;;7.43;;
24585;SDS011;12743;52.262;6.172;2023-04-24T08:47:04;12.05;;;5.80;;
24585;SDS011;12743;52.262;6.172;2023-04-24T08:49:31;17.08;;;7.72;;
24585;SDS011;12743;52.262;6.172;2023-04-24T08:51:58;14.40;;;6.40;;
24585;SDS011;12743;52.262;6.172;2023-04-24T08:54:26;17.45;;;7.35;;
24585;SDS011;12743;52.262;6.172;2023-04-24T08:56:53;16.13;;;6.53;;
24585;SDS011;12743;52.262;6.172;2023-04-24T08:59:21;16.63;;;7.18;;
24585;SDS011;12743;52.262;6.172;2023-04-24T09:01:48;15.93;;;7.43;;
24585;SDS011;12743;52.262;6.172;2023-04-24T09:04:17;15.37;;;6.80;;
24585;SDS011;12743;52.262;6.172;2023-04-24T09:06:47;13.15;;;6.32;;
24585;SDS011;12743;52.262;6.172;2023-04-24T09:09:15;15.55;;;6.68;;
24585;SDS011;12743;52.262;6.172;2023-04-24T09:11:43;12.80;;;6.53;;
24585;SDS011;12743;52.262;6.172;2023-04-24T09:14:09;13.45;;;7.05;;
24585;SDS011;12743;52.262;6.172;2023-04-24T09:16:37;12.90;;;5.83;;
24585;SDS011;12743;52.262;6.172;2023-04-24T09:19:03;13.65;;;6.13;;
24585;SDS011;12743;52.262;6.172;2023-04-24T09:21:33;12.15;;;5.40;;
24585;SDS011;12743;52.262;6.172;2023-04-24T09:24:05;12.38;;;5.53;;
24585;SDS011;12743;52.262;6.172;2023-04-24T09:26:36;15.35;;;6.70;;
24585;SDS011;12743;52.262;6.172;2023-04-24T09:29:03;13.30;;;5.90;;
24585;SDS011;12743;52.262;6.172;2023-04-24T09:31:30;15.35;;;6.10;;
24585;SDS011;12743;52.262;6.172;2023-04-24T09:33:58;11.20;;;6.32;;
24585;SDS011;12743;52.262;6.172;2023-04-24T09:39:01;14.00;;;6.30;;
24585;SDS011;12743;52.262;6.172;2023-04-24T09:41:28;14.33;;;6.10;;
24585;SDS011;12743;52.262;6.172;2023-04-24T09:43:58;20.42;;;7.53;;
24585;SDS011;12743;52.262;6.172;2023-04-24T09:46:37;17.80;;;6.25;;
24585;SDS011;12743;52.262;6.172;2023-04-24T09:49:11;13.02;;;5.32;;
24585;SDS011;12743;52.262;6.172;2023-04-24T09:51:39;10.00;;;4.85;;
24585;SDS011;12743;52.262;6.172;2023-04-24T09:54:13;12.97;;;4.13;;
24585;SDS011;12743;52.262;6.172;2023-04-24T09:56:42;11.23;;;3.70;;
24585;SDS011;12743;52.262;6.172;2023-04-24T09:59:11;7.88;;;3.05;;
24585;SDS011;12743;52.262;6.172;2023-04-24T10:01:44;11.05;;;3.17;;
24585;SDS011;12743;52.262;6.172;2023-04-24T10:04:21;9.25;;;3.80;;
24585;SDS011;12743;52.262;6.172;2023-04-24T10:06:51;9.60;;;3.07;;
24585;SDS011;12743;52.262;6.172;2023-04-24T10:09:19;9.30;;;2.65;;
24585;SDS011;12743;52.262;6.172;2023-04-24T10:11:48;10.45;;;2.40;;
24585;SDS011;12743;52.262;6.172;2023-04-24T10:14:18;8.38;;;2.25;;
24585;SDS011;12743;52.262;6.172;2023-04-24T10:16:46;10.85;;;2.45;;
24585;SDS011;12743;52.262;6.172;2023-04-24T10:19:14;12.03;;;2.57;;
24585;SDS011;12743;52.262;6.172;2023-04-24T10:21:42;13.80;;;2.80;;
24585;SDS011;12743;52.262;6.172;2023-04-24T10:24:13;10.32;;;2.60;;
24585;SDS011;12743;52.262;6.172;2023-04-24T10:26:41;20.10;;;2.70;;
24585;SDS011;12743;52.262;6.172;2023-04-24T10:29:10;13.80;;;2.30;;
24585;SDS011;12743;52.262;6.172;2023-04-24T10:31:39;12.20;;;2.60;;
24585;SDS011;12743;52.262;6.172;2023-04-24T10:34:06;16.50;;;2.90;;
24585;SDS011;12743;52.262;6.172;2023-04-24T10:36:33;16.45;;;2.63;;
24585;SDS011;12743;52.262;6.172;2023-04-24T10:39:02;11.95;;;3.03;;
24585;SDS011;12743;52.262;6.172;2023-04-24T10:41:31;13.70;;;2.78;;
24585;SDS011;12743;52.262;6.172;2023-04-24T10:44:08;8.67;;;1.80;;
24585;SDS011;12743;52.262;6.172;2023-04-24T10:46:36;12.50;;;2.38;;
24585;SDS011;12743;52.262;6.172;2023-04-24T10:49:07;11.65;;;2.13;;
24585;SDS011;12743;52.262;6.172;2023-04-24T10:52:26;13.45;;;1.92;;
24585;SDS011;12743;52.262;6.172;2023-04-24T10:54:35;11.05;;;1.67;;
24585;SDS011;12743;52.262;6.172;2023-04-24T10:59:44;11.25;;;1.65;;
24585;SDS011;12743;52.262;6.172;2023-04-24T11:02:14;9.95;;;1.73;;
24585;SDS011;12743;52.262;6.172;2023-04-24T11:04:41;8.88;;;1.60;;
24585;SDS011;12743;52.262;6.172;2023-04-24T11:07:12;7.90;;;1.60;;
24585;SDS011;12743;52.262;6.172;2023-04-24T11:09:39;7.50;;;1.30;;
24585;SDS011;12743;52.262;6.172;2023-04-24T11:12:10;6.20;;;1.50;;
24585;SDS011;12743;52.262;6.172;2023-04-24T11:17:28;6.03;;;1.13;;
24585;SDS011;12743;52.262;6.172;2023-04-24T11:20:06;8.30;;;1.55;;
24585;SDS011;12743;52.262;6.172;2023-04-24T11:22:53;5.50;;;1.33;;
24585;SDS011;12743;52.262;6.172;2023-04-24T11:25:21;7.82;;;1.27;;
24585;SDS011;12743;52.262;6.172;2023-04-24T11:27:49;10.35;;;1.85;;
24585;SDS011;12743;52.262;6.172;2023-04-24T11:30:19;6.13;;;1.27;;
24585;SDS011;12743;52.262;6.172;2023-04-24T11:32:52;9.80;;;1.40;;
24585;SDS011;12743;52.262;6.172;2023-04-24T11:35:22;7.70;;;1.10;;
24585;SDS011;12743;52.262;6.172;2023-04-24T11:37:52;14.38;;;2.00;;
24585;SDS011;12743;52.262;6.172;2023-04-24T11:40:22;12.07;;;1.60;;
24585;SDS011;12743;52.262;6.172;2023-04-24T11:42:50;10.20;;;1.80;;
24585;SDS011;12743;52.262;6.172;2023-04-24T11:45:24;9.82;;;2.17;;
24585;SDS011;12743;52.262;6.172;2023-04-24T11:47:53;8.30;;;1.80;;
24585;SDS011;12743;52.262;6.172;2023-04-24T11:50:22;5.28;;;1.55;;
24585;SDS011;12743;52.262;6.172;2023-04-24T11:52:50;7.72;;;2.00;;
24585;SDS011;12743;52.262;6.172;2023-04-24T11:57:47;10.77;;;1.30;;
24585;SDS011;12743;52.262;6.172;2023-04-24T12:00:25;6.40;;;1.60;;
24585;SDS011;12743;52.262;6.172;2023-04-24T12:03:03;6.97;;;1.58;;
24585;SDS011;12743;52.262;6.172;2023-04-24T12:05:32;9.55;;;1.42;;
24585;SDS011;12743;52.262;6.172;2023-04-24T12:07:59;5.47;;;1.08;;
24585;SDS011;12743;52.262;6.172;2023-04-24T12:10:28;7.32;;;0.88;;
24585;SDS011;12743;52.262;6.172;2023-04-24T12:12:56;7.27;;;0.80;;
24585;SDS011;12743;52.262;6.172;2023-04-24T12:15:24;5.90;;;0.82;;
24585;SDS011;12743;52.262;6.172;2023-04-24T12:17:51;3.90;;;0.70;;
24585;SDS011;12743;52.262;6.172;2023-04-24T12:20:23;4.38;;;0.75;;
24585;SDS011;12743;52.262;6.172;2023-04-24T12:22:55;5.90;;;1.45;;
24585;SDS011;12743;52.262;6.172;2023-04-24T12:25:23;6.03;;;0.97;;
24585;SDS011;12743;52.262;6.172;2023-04-24T12:27:52;6.10;;;0.90;;
24585;SDS011;12743;52.262;6.172;2023-04-24T12:30:21;5.03;;;0.80;;
24585;SDS011;12743;52.262;6.172;2023-04-24T12:32:52;2.83;;;0.60;;
24585;SDS011;12743;52.262;6.172;2023-04-24T12:35:22;4.70;;;0.60;;
24585;SDS011;12743;52.262;6.172;2023-04-24T12:37:49;3.53;;;0.50;;
24585;SDS011;12743;52.262;6.172;2023-04-24T12:40:16;3.13;;;0.50;;
24585;SDS011;12743;52.262;6.172;2023-04-24T12:42:50;3.10;;;0.40;;
24585;SDS011;12743;52.262;6.172;2023-04-24T12:45:18;2.78;;;0.30;;
24585;SDS011;12743;52.262;6.172;2023-04-24T12:47:45;3.97;;;0.50;;
24585;SDS011;12743;52.262;6.172;2023-04-24T12:50:13;3.90;;;0.37;;
24585;SDS011;12743;52.262;6.172;2023-04-24T12:52:41;4.20;;;0.43;;
24585;SDS011;12743;52.262;6.172;2023-04-24T12:55:08;2.38;;;0.40;;
24585;SDS011;12743;52.262;6.172;2023-04-24T12:57:36;4.03;;;0.40;;
24585;SDS011;12743;52.262;6.172;2023-04-24T13:00:04;5.60;;;0.47;;
24585;SDS011;12743;52.262;6.172;2023-04-24T13:02:32;4.87;;;0.43;;
24585;SDS011;12743;52.262;6.172;2023-04-24T13:05:00;2.88;;;0.68;;
24585;SDS011;12743;52.262;6.172;2023-04-24T13:07:27;4.22;;;0.50;;
24585;SDS011;12743;52.262;6.172;2023-04-24T13:09:54;4.72;;;0.50;;
24585;SDS011;12743;52.262;6.172;2023-04-24T13:12:21;3.28;;;0.40;;
24585;SDS011;12743;52.262;6.172;2023-04-24T13:14:50;3.27;;;0.33;;
24585;SDS011;12743;52.262;6.172;2023-04-24T13:17:16;3.45;;;0.30;;
24585;SDS011;12743;52.262;6.172;2023-04-24T13:19:43;3.42;;;0.40;;
24585;SDS011;12743;52.262;6.172;2023-04-24T13:22:11;2.75;;;0.40;;
24585;SDS011;12743;52.262;6.172;2023-04-24T13:24:38;3.97;;;0.30;;
24585;SDS011;12743;52.262;6.172;2023-04-24T13:27:08;3.00;;;0.40;;
24585;SDS011;12743;52.262;6.172;2023-04-24T13:29:35;5.82;;;0.45;;
24585;SDS011;12743;52.262;6.172;2023-04-24T13:32:02;4.43;;;0.52;;
24585;SDS011;12743;52.262;6.172;2023-04-24T13:34:29;4.53;;;0.38;;
24585;SDS011;12743;52.262;6.172;2023-04-24T13:36:56;3.88;;;0.43;;
24585;SDS011;12743;52.262;6.172;2023-04-24T13:39:24;3.20;;;0.43;;
24585;SDS011;12743;52.262;6.172;2023-04-24T13:41:52;4.35;;;0.50;;
24585;SDS011;12743;52.262;6.172;2023-04-24T13:44:20;5.43;;;0.50;;
24585;SDS011;12743;52.262;6.172;2023-04-24T13:46:48;4.38;;;0.70;;
24585;SDS011;12743;52.262;6.172;2023-04-24T13:49:16;3.83;;;0.52;;
24585;SDS011;12743;52.262;6.172;2023-04-24T13:51:43;2.90;;;0.37;;
24585;SDS011;12743;52.262;6.172;2023-04-24T13:54:13;6.65;;;0.63;;
24585;SDS011;12743;52.262;6.172;2023-04-24T13:56:40;4.72;;;0.60;;
24585;SDS011;12743;52.262;6.172;2023-04-24T13:59:06;5.80;;;0.60;;
24585;SDS011;12743;52.262;6.172;2023-04-24T14:01:33;3.40;;;0.50;;
24585;SDS011;12743;52.262;6.172;2023-04-24T14:04:00;6.53;;;1.10;;
24585;SDS011;12743;52.262;6.172;2023-04-24T14:06:26;6.68;;;1.25;;
24585;SDS011;12743;52.262;6.172;2023-04-24T14:08:53;6.50;;;0.98;;
24585;SDS011;12743;52.262;6.172;2023-04-24T14:11:20;7.57;;;0.90;;
24585;SDS011;12743;52.262;6.172;2023-04-24T14:13:46;8.88;;;1.38;;
24585;SDS011;12743;52.262;6.172;2023-04-24T14:16:13;10.30;;;1.13;;
24585;SDS011;12743;52.262;6.172;2023-04-24T14:18:40;7.90;;;1.10;;
24585;SDS011;12743;52.262;6.172;2023-04-24T14:21:07;7.63;;;1.30;;
24585;SDS011;12743;52.262;6.172;2023-04-24T14:23:34;10.32;;;1.35;;
24585;SDS011;12743;52.262;6.172;2023-04-24T14:26:00;9.13;;;1.38;;
24585;SDS011;12743;52.262;6.172;2023-04-24T14:28:27;7.80;;;0.90;;
24585;SDS011;12743;52.262;6.172;2023-04-24T14:30:54;10.25;;;1.50;;
24585;SDS011;12743;52.262;6.172;2023-04-24T14:33:21;7.88;;;1.23;;
24585;SDS011;12743;52.262;6.172;2023-04-24T14:35:47;8.13;;;1.05;;
24585;SDS011;12743;52.262;6.172;2023-04-24T14:38:14;11.32;;;1.42;;
24585;SDS011;12743;52.262;6.172;2023-04-24T14:40:41;7.80;;;1.10;;
24585;SDS011;12743;52.262;6.172;2023-04-24T14:43:28;9.77;;;1.83;;
24585;SDS011;12743;52.262;6.172;2023-04-24T14:45:54;12.15;;;2.03;;
24585;SDS011;12743;52.262;6.172;2023-04-24T14:48:21;14.15;;;1.60;;
24585;SDS011;12743;52.262;6.172;2023-04-24T14:50:47;6.85;;;1.55;;
24585;SDS011;12743;52.262;6.172;2023-04-24T14:53:14;9.30;;;1.17;;
24585;SDS011;12743;52.262;6.172;2023-04-24T14:55:41;9.85;;;1.38;;
24585;SDS011;12743;52.262;6.172;2023-04-24T14:58:07;7.00;;;1.15;;
24585;SDS011;12743;52.262;6.172;2023-04-24T15:00:34;10.45;;;2.08;;
24585;SDS011;12743;52.262;6.172;2023-04-24T15:03:00;12.40;;;1.65;;